createdAt,value
2019-05-29T00:01:10.443Z,11.14
2019-05-29T00:03:38.673Z,11.15
2019-05-29T00:06:08.212Z,11.15
2019-05-29T00:08:37.623Z,11.11
2019-05-29T00:11:08.007Z,11.07
2019-05-29T00:13:37.470Z,11.04
2019-05-29T00:16:08.285Z,11.05
2019-05-29T00:18:37.812Z,10.97
2019-05-29T00:21:08.302Z,10.95
2019-05-29T00:23:38.081Z,10.94
2019-05-29T00:26:08.304Z,10.90
2019-05-29T00:28:37.786Z,10.93
2019-05-29T00:31:07.731Z,10.87
2019-05-29T00:33:37.319Z,10.87
2019-05-29T00:36:08.158Z,10.91
2019-05-29T00:38:37.652Z,10.84
2019-05-29T00:41:07.406Z,10.90
2019-05-29T00:43:37.080Z,10.83
2019-05-29T00:46:07.356Z,10.78
2019-05-29T00:48:37.374Z,10.83
2019-05-29T00:51:07.132Z,10.82
2019-05-29T00:53:37.202Z,10.80
2019-05-29T00:56:07.175Z,10.78
2019-05-29T00:58:37.124Z,10.82
2019-05-29T01:01:07.115Z,10.74
2019-05-29T01:03:37.298Z,10.78
2019-05-29T01:06:07.155Z,10.76
2019-05-29T01:08:37.017Z,10.63
2019-05-29T01:11:07.203Z,10.68
2019-05-29T01:13:37.062Z,10.70
2019-05-29T01:16:07.112Z,10.72
2019-05-29T01:18:37.516Z,10.71
2019-05-29T01:21:07.175Z,10.65
2019-05-29T01:23:37.180Z,10.64
2019-05-29T01:26:07.312Z,10.61
2019-05-29T01:28:37.089Z,10.62
2019-05-29T01:31:07.131Z,10.66
2019-05-29T01:33:37.181Z,10.62
2019-05-29T01:36:07.186Z,10.65
2019-05-29T01:38:37.211Z,10.64
2019-05-29T01:41:07.292Z,10.61
2019-05-29T01:43:37.321Z,10.57
2019-05-29T01:46:07.150Z,10.55
2019-05-29T01:48:37.281Z,10.55
2019-05-29T01:51:07.148Z,10.53
2019-05-29T01:53:37.173Z,10.44
2019-05-29T01:56:07.291Z,10.56
2019-05-29T01:58:37.249Z,10.56
2019-05-29T02:01:07.182Z,10.59
2019-05-29T02:03:37.391Z,10.60
2019-05-29T02:06:07.245Z,10.55
2019-05-29T02:08:37.317Z,10.44
2019-05-29T02:11:07.425Z,10.45
2019-05-29T02:13:37.317Z,10.45
2019-05-29T02:16:07.172Z,10.43
2019-05-29T02:18:37.259Z,10.40
2019-05-29T02:21:07.207Z,10.44
2019-05-29T02:23:37.607Z,10.43
2019-05-29T02:26:07.567Z,10.31
2019-05-29T02:28:37.328Z,10.31
2019-05-29T02:31:07.557Z,10.30
2019-05-29T02:33:37.380Z,10.31
2019-05-29T02:36:07.327Z,10.34
2019-05-29T02:38:37.277Z,10.32
2019-05-29T02:41:07.375Z,10.29
2019-05-29T02:43:37.334Z,10.14
2019-05-29T02:46:07.214Z,10.22
2019-05-29T02:48:37.560Z,10.25
2019-05-29T02:51:07.262Z,10.34
2019-05-29T02:53:37.387Z,10.39
2019-05-29T02:56:07.368Z,10.46
2019-05-29T02:58:37.332Z,10.57
2019-05-29T03:01:07.240Z,10.64
2019-05-29T03:03:39.933Z,10.61
2019-05-29T03:06:09.299Z,10.65
2019-05-29T03:08:39.907Z,10.60
2019-05-29T03:11:09.665Z,10.56
2019-05-29T03:13:40.209Z,10.54
2019-05-29T03:16:12.355Z,10.58
2019-05-29T03:18:40.937Z,10.55
2019-05-29T03:21:10.333Z,10.58
2019-05-29T03:23:39.772Z,10.54
2019-05-29T03:26:09.326Z,10.59
2019-05-29T03:28:38.738Z,10.58
2019-05-29T03:31:08.171Z,10.58
2019-05-29T03:33:45.297Z,10.56
2019-05-29T03:36:08.764Z,10.53
2019-05-29T03:38:38.576Z,10.56
2019-05-29T03:41:08.265Z,10.56
2019-05-29T03:43:38.786Z,10.56
2019-05-29T03:46:26.568Z,10.61
2019-05-29T03:48:39.780Z,10.65
2019-05-29T03:51:09.221Z,10.64
2019-05-29T03:53:38.651Z,10.63
2019-05-29T03:56:09.371Z,10.65
2019-05-29T03:58:38.760Z,10.67
2019-05-29T04:01:08.217Z,10.69
2019-05-29T04:03:38.402Z,10.65
2019-05-29T04:06:09.892Z,10.72
2019-05-29T04:08:41.663Z,10.73
2019-05-29T04:11:11.203Z,10.76
2019-05-29T04:13:40.571Z,10.77
2019-05-29T04:16:11.300Z,10.75
2019-05-29T04:18:41.833Z,10.83
2019-05-29T04:21:12.180Z,10.83
2019-05-29T04:23:43.440Z,10.86
2019-05-29T04:26:16.714Z,10.94
2019-05-29T04:28:47.976Z,10.98
2019-05-29T04:31:17.419Z,11.05
2019-05-29T04:33:46.879Z,11.07
2019-05-29T04:36:16.275Z,11.13
2019-05-29T04:38:45.688Z,11.13
2019-05-29T04:41:15.172Z,11.16
2019-05-29T04:43:44.590Z,11.23
2019-05-29T04:46:14.009Z,11.26
2019-05-29T04:48:43.622Z,11.34
2019-05-29T04:51:13.023Z,11.40
2019-05-29T04:53:42.455Z,11.52
2019-05-29T04:56:12.050Z,11.49
2019-05-29T04:58:42.054Z,11.51
2019-05-29T05:01:11.550Z,11.53
2019-05-29T05:03:41.101Z,11.55
2019-05-29T05:06:10.575Z,11.59
2019-05-29T05:08:40.287Z,11.63
2019-05-29T05:11:11.395Z,11.73
2019-05-29T05:13:40.905Z,11.68
2019-05-29T05:16:10.389Z,11.75
2019-05-29T05:18:40.336Z,11.76
2019-05-29T05:21:13.318Z,11.79
2019-05-29T05:23:42.814Z,11.87
2019-05-29T05:26:12.417Z,11.91
2019-05-29T05:28:44.784Z,12.03
2019-05-29T05:31:13.288Z,12.31
2019-05-29T05:33:43.085Z,12.43
2019-05-29T05:36:12.552Z,12.29
2019-05-29T05:38:42.855Z,12.42
2019-05-29T05:41:12.316Z,12.51
2019-05-29T05:43:41.782Z,12.57
2019-05-29T05:46:11.290Z,12.47
2019-05-29T05:48:41.495Z,12.52
2019-05-29T05:51:11.158Z,12.42
2019-05-29T05:53:42.683Z,12.74
2019-05-29T05:56:12.216Z,13.14
2019-05-29T05:58:42.310Z,13.36
2019-05-29T06:01:11.908Z,13.56
2019-05-29T06:03:42.477Z,13.77
2019-05-29T06:06:12.296Z,14.16
2019-05-29T06:08:42.489Z,14.17
2019-05-29T06:11:12.219Z,14.44
2019-05-29T06:13:42.802Z,14.65
2019-05-29T06:16:12.478Z,14.53
2019-05-29T06:18:43.007Z,14.62
2019-05-29T06:21:12.775Z,14.28
2019-05-29T06:23:43.488Z,14.28
2019-05-29T06:26:13.623Z,14.28
2019-05-29T06:28:43.630Z,15.62
2019-05-29T06:31:13.174Z,17.21
2019-05-29T06:33:43.867Z,17.31
2019-05-29T06:36:13.843Z,17.14
2019-05-29T06:38:46.164Z,17.40
2019-05-29T06:41:16.181Z,18.04
2019-05-29T06:43:45.631Z,17.80
2019-05-29T06:46:15.152Z,17.82
2019-05-29T06:48:58.520Z,19.88
2019-05-29T06:51:15.891Z,20.75
2019-05-29T06:53:45.385Z,20.37
2019-05-29T06:56:16.121Z,19.88
2019-05-29T06:58:46.104Z,19.25
2019-05-29T07:01:15.569Z,21.00
2019-05-29T07:03:48.207Z,19.73
2019-05-29T07:06:17.804Z,18.12
2019-05-29T07:08:49.962Z,17.55
2019-05-29T07:11:18.963Z,18.45
2019-05-29T07:13:50.535Z,18.24
2019-05-29T07:16:19.551Z,17.48
2019-05-29T07:19:24.069Z,16.84
2019-05-29T07:21:20.675Z,16.42
2019-05-29T07:23:50.208Z,17.60
2019-05-29T07:26:19.675Z,17.38
2019-05-29T07:29:07.668Z,18.44
2019-05-29T07:31:20.419Z,20.29
2019-05-29T07:33:50.297Z,21.19
2019-05-29T07:36:19.720Z,19.69
2019-05-29T07:39:01.910Z,19.06
2019-05-29T07:41:20.973Z,18.77
2019-05-29T07:43:50.433Z,18.41
2019-05-29T07:46:19.842Z,18.81
2019-05-29T07:48:50.390Z,17.70
2019-05-29T07:51:20.166Z,16.89
2019-05-29T07:53:49.683Z,16.47
2019-05-29T07:56:22.915Z,16.09
2019-05-29T07:59:01.670Z,15.85
2019-05-29T08:01:21.759Z,15.71
2019-05-29T08:03:51.195Z,15.48
2019-05-29T08:06:21.583Z,15.54
2019-05-29T08:08:51.205Z,15.75
2019-05-29T08:11:21.022Z,15.89
2019-05-29T08:13:50.418Z,15.77
2019-05-29T08:16:19.884Z,15.77
2019-05-29T08:18:52.674Z,15.78
2019-05-29T08:21:20.562Z,15.74
2019-05-29T08:23:50.757Z,15.68
2019-05-29T08:26:20.499Z,15.73
2019-05-29T08:28:51.153Z,15.92
2019-05-29T08:31:21.849Z,15.98
2019-05-29T08:33:51.515Z,15.95
2019-05-29T08:36:21.055Z,15.91
2019-05-29T08:38:51.821Z,15.77
2019-05-29T08:41:21.613Z,15.62
2019-05-29T08:43:51.086Z,15.70
2019-05-29T08:46:20.737Z,15.91
2019-05-29T08:48:50.301Z,16.18
2019-05-29T08:51:19.682Z,16.54
2019-05-29T08:53:51.897Z,17.00
2019-05-29T08:56:20.413Z,17.98
2019-05-29T08:58:50.646Z,19.55
2019-05-29T09:01:20.757Z,20.20
2019-05-29T09:03:51.271Z,20.68
2019-05-29T09:06:21.300Z,21.18
2019-05-29T09:08:52.836Z,20.68
2019-05-29T09:11:22.075Z,19.97
2019-05-29T09:13:51.530Z,19.23
2019-05-29T09:16:21.137Z,18.51
2019-05-29T09:18:50.726Z,17.78
2019-05-29T09:21:20.664Z,17.40
2019-05-29T09:23:50.077Z,17.18
2019-05-29T09:26:22.994Z,17.02
2019-05-29T09:28:50.800Z,17.12
2019-05-29T09:31:20.399Z,16.98
2019-05-29T09:33:51.285Z,16.95
2019-05-29T09:36:20.872Z,16.96
2019-05-29T09:38:50.485Z,17.27
2019-05-29T09:41:21.603Z,18.14
2019-05-29T09:43:58.929Z,19.37
2019-05-29T09:46:23.698Z,20.28
2019-05-29T09:48:53.487Z,20.25
2019-05-29T09:51:23.213Z,20.48
2019-05-29T09:53:54.317Z,20.99
2019-05-29T09:56:23.977Z,21.13
2019-05-29T09:58:55.274Z,21.26
2019-05-29T10:01:25.669Z,20.29
2019-05-29T10:03:57.570Z,19.68
2019-05-29T10:06:26.623Z,19.30
2019-05-29T10:08:56.726Z,18.98
2019-05-29T10:11:27.528Z,18.88
2019-05-29T10:13:58.624Z,18.74
2019-05-29T10:16:28.268Z,18.65
2019-05-29T10:18:59.774Z,18.83
2019-05-29T10:21:39.073Z,18.84
2019-05-29T10:24:01.992Z,18.36
2019-05-29T10:26:31.548Z,18.22
2019-05-29T10:29:08.285Z,18.15
2019-05-29T10:31:32.119Z,17.89
2019-05-29T10:34:01.650Z,18.03
2019-05-29T10:36:31.057Z,18.12
2019-05-29T10:39:00.556Z,18.30
2019-05-29T10:41:30.009Z,18.64
2019-05-29T10:43:59.419Z,19.50
2019-05-29T10:46:28.804Z,19.35
2019-05-29T10:48:58.459Z,19.23
2019-05-29T10:51:27.993Z,18.80
2019-05-29T10:53:59.133Z,18.48
2019-05-29T10:56:28.853Z,18.22
2019-05-29T10:59:00.055Z,17.83
2019-05-29T11:01:29.602Z,17.39
2019-05-29T11:04:00.177Z,17.61
2019-05-29T11:06:29.618Z,17.61
2019-05-29T11:08:59.050Z,17.81
2019-05-29T11:11:28.545Z,17.86
2019-05-29T11:13:57.965Z,17.63
2019-05-29T11:16:27.393Z,17.57
2019-05-29T11:18:57.585Z,17.24
2019-05-29T11:21:27.199Z,17.25
2019-05-29T11:23:58.057Z,17.31
2019-05-29T11:26:27.934Z,17.29
2019-05-29T11:28:58.630Z,17.50
2019-05-29T11:31:28.354Z,17.79
2019-05-29T11:33:59.107Z,18.09
2019-05-29T11:36:28.736Z,18.39
2019-05-29T11:39:03.229Z,18.47
2019-05-29T11:41:29.585Z,18.31
2019-05-29T11:43:59.047Z,18.40
2019-05-29T11:46:28.428Z,18.71
2019-05-29T11:48:59.245Z,18.91
2019-05-29T11:51:28.788Z,18.85
2019-05-29T11:53:59.469Z,18.65
2019-05-29T11:56:29.174Z,18.39
2019-05-29T11:58:59.136Z,18.39
2019-05-29T12:01:28.558Z,18.55
2019-05-29T12:04:21.606Z,18.86
2019-05-29T12:06:29.326Z,19.14
2019-05-29T12:08:59.851Z,18.85
2019-05-29T12:11:29.492Z,18.90
2019-05-29T12:14:00.548Z,19.08
2019-05-29T12:16:30.072Z,18.95
2019-05-29T12:19:01.900Z,18.70
2019-05-29T12:21:31.507Z,18.45
2019-05-29T12:24:02.325Z,18.25
2019-05-29T12:26:31.906Z,18.26
2019-05-29T12:29:10.755Z,18.22
2019-05-29T12:31:32.585Z,18.34
2019-05-29T12:34:12.991Z,18.38
2019-05-29T12:36:33.660Z,18.35
2019-05-29T12:39:04.209Z,18.28
2019-05-29T12:41:33.872Z,18.32
2019-05-29T12:44:03.659Z,18.43
2019-05-29T12:46:33.249Z,18.78
2019-05-29T12:49:03.820Z,18.78
2019-05-29T12:51:33.421Z,18.76
2019-05-29T12:54:04.992Z,18.44
2019-05-29T12:56:34.221Z,18.32
2019-05-29T12:59:04.687Z,18.20
2019-05-29T13:01:34.256Z,18.37
2019-05-29T13:04:04.762Z,18.46
2019-05-29T13:06:34.311Z,18.68
2019-05-29T13:09:05.797Z,18.78
2019-05-29T13:11:35.703Z,18.79
2019-05-29T13:14:05.218Z,18.71
2019-05-29T13:16:34.633Z,18.58
2019-05-29T13:19:05.378Z,18.74
2019-05-29T13:21:34.906Z,18.68
2019-05-29T13:24:11.210Z,18.60
2019-05-29T13:26:38.376Z,18.60
2019-05-29T13:29:08.357Z,18.51
2019-05-29T13:31:38.419Z,18.54
2019-05-29T13:34:08.513Z,18.32
2019-05-29T13:36:39.324Z,18.12
2019-05-29T13:39:09.568Z,18.19
2019-05-29T13:41:41.090Z,18.19
2019-05-29T13:44:10.523Z,18.25
2019-05-29T13:46:39.965Z,18.31
2019-05-29T13:49:09.419Z,18.09
2019-05-29T13:51:38.840Z,18.04
2019-05-29T13:54:15.350Z,18.02
2019-05-29T13:56:40.024Z,18.09
2019-05-29T13:59:09.452Z,18.28
2019-05-29T14:01:38.887Z,18.48
2019-05-29T14:04:08.764Z,18.48
2019-05-29T14:06:38.803Z,18.46
2019-05-29T14:09:10.091Z,18.53
2019-05-29T14:11:39.947Z,18.58
2019-05-29T14:14:12.912Z,18.47
2019-05-29T14:16:40.636Z,18.51
2019-05-29T14:19:10.182Z,18.26
2019-05-29T14:21:39.590Z,18.14
2019-05-29T14:24:26.288Z,18.16
2019-05-29T14:26:40.404Z,18.27
2019-05-29T14:29:10.130Z,18.34
2019-05-29T14:31:39.565Z,18.50
2019-05-29T14:34:09.514Z,18.64
2019-05-29T14:36:39.266Z,18.71
2019-05-29T14:39:09.998Z,18.65
2019-05-29T14:41:39.584Z,18.67
2019-05-29T14:44:10.018Z,18.78
2019-05-29T14:46:39.599Z,18.80
2019-05-29T14:49:10.463Z,19.00
2019-05-29T14:51:40.302Z,19.21
2019-05-29T14:54:11.048Z,19.15
2019-05-29T14:56:40.992Z,19.02
2019-05-29T14:59:11.100Z,18.95
2019-05-29T15:01:40.763Z,19.29
2019-05-29T15:04:12.682Z,19.45
2019-05-29T15:06:41.802Z,19.32
2019-05-29T15:09:11.807Z,19.45
2019-05-29T15:11:41.367Z,19.57
2019-05-29T15:14:10.766Z,19.59
2019-05-29T15:16:40.195Z,19.51
2019-05-29T15:19:10.996Z,19.33
2019-05-29T15:21:40.861Z,19.31
2019-05-29T15:24:11.527Z,19.29
2019-05-29T15:26:41.150Z,19.23
2019-05-29T15:29:14.297Z,18.93
2019-05-29T15:31:41.682Z,19.06
2019-05-29T15:34:12.279Z,19.17
2019-05-29T15:36:43.924Z,19.10
2019-05-29T15:39:14.499Z,18.94
2019-05-29T15:41:44.274Z,18.97
2019-05-29T15:44:15.056Z,19.16
2019-05-29T15:46:44.520Z,19.25
2019-05-29T15:49:15.219Z,19.41
2019-05-29T15:51:44.833Z,19.22
2019-05-29T15:54:15.302Z,19.29
2019-05-29T15:56:46.244Z,19.23
2019-05-29T15:59:17.086Z,19.22
2019-05-29T16:01:46.789Z,19.13
2019-05-29T16:04:16.400Z,19.20
2019-05-29T16:06:47.203Z,19.23
2019-05-29T16:09:16.592Z,18.99
2019-05-29T16:11:46.187Z,18.98
2019-05-29T16:14:16.789Z,18.77
2019-05-29T16:16:46.286Z,18.61
2019-05-29T16:19:16.247Z,18.63
2019-05-29T16:21:45.879Z,18.64
2019-05-29T16:24:15.295Z,18.65
2019-05-29T16:26:44.774Z,18.60
2019-05-29T16:29:15.981Z,18.58
2019-05-29T16:31:45.372Z,18.55
2019-05-29T16:34:18.439Z,18.44
2019-05-29T16:36:46.174Z,18.36
2019-05-29T16:39:15.809Z,18.17
2019-05-29T16:41:45.440Z,18.09
2019-05-29T16:44:16.162Z,18.12
2019-05-29T16:46:45.850Z,18.11
2019-05-29T16:49:16.620Z,18.02
2019-05-29T16:51:46.134Z,18.08
2019-05-29T16:54:17.057Z,18.23
2019-05-29T16:56:46.864Z,18.21
2019-05-29T16:59:17.029Z,18.14
2019-05-29T17:01:46.592Z,18.13
2019-05-29T17:04:16.159Z,18.07
2019-05-29T17:06:45.568Z,18.06
2019-05-29T17:09:16.314Z,18.05
2019-05-29T17:11:46.029Z,18.13
2019-05-29T17:14:16.441Z,18.09
2019-05-29T17:16:46.539Z,18.05
2019-05-29T17:19:16.591Z,17.97
2019-05-29T17:21:46.131Z,17.89
2019-05-29T17:24:16.659Z,17.92
2019-05-29T17:26:46.378Z,17.89
2019-05-29T17:29:16.899Z,17.76
2019-05-29T17:31:46.386Z,17.80
2019-05-29T17:34:16.902Z,17.83
2019-05-29T17:36:46.415Z,17.86
2019-05-29T17:39:17.027Z,17.89
2019-05-29T17:41:46.873Z,17.77
2019-05-29T17:44:17.422Z,17.82
2019-05-29T17:46:46.888Z,17.73
2019-05-29T17:49:17.742Z,17.65
2019-05-29T17:51:47.357Z,17.67
2019-05-29T17:54:17.891Z,17.62
2019-05-29T17:56:47.498Z,17.55
2019-05-29T17:59:17.965Z,17.50
2019-05-29T18:01:47.369Z,17.44
2019-05-29T18:04:17.846Z,17.47
2019-05-29T18:06:47.385Z,17.46
2019-05-29T18:09:17.211Z,17.34
2019-05-29T18:11:47.608Z,17.29
2019-05-29T18:14:17.483Z,17.32
2019-05-29T18:16:46.921Z,17.27
2019-05-29T18:19:17.541Z,17.19
2019-05-29T18:21:47.364Z,17.11
2019-05-29T18:24:17.666Z,17.10
2019-05-29T18:26:47.659Z,17.06
2019-05-29T18:29:18.046Z,16.99
2019-05-29T18:31:47.728Z,16.98
2019-05-29T18:34:17.193Z,16.95
2019-05-29T18:36:46.624Z,16.97
2019-05-29T18:39:16.053Z,16.95
2019-05-29T18:41:45.533Z,16.92
2019-05-29T18:44:14.954Z,16.92
2019-05-29T18:46:44.396Z,16.83
2019-05-29T18:49:14.878Z,16.78
2019-05-29T18:51:44.494Z,16.81
2019-05-29T18:54:14.173Z,16.81
2019-05-29T18:56:43.637Z,16.77
2019-05-29T18:59:13.672Z,16.75
2019-05-29T19:01:43.732Z,16.66
2019-05-29T19:04:13.796Z,16.62
2019-05-29T19:06:43.719Z,16.59
2019-05-29T19:09:13.604Z,16.58
2019-05-29T19:11:43.233Z,16.57
2019-05-29T19:14:13.685Z,16.56
2019-05-29T19:16:43.719Z,16.49
2019-05-29T19:19:13.888Z,16.42
2019-05-29T19:21:43.726Z,16.34
2019-05-29T19:24:14.115Z,16.21
2019-05-29T19:26:44.026Z,16.21
2019-05-29T19:29:13.694Z,16.13
2019-05-29T19:31:43.665Z,16.12
2019-05-29T19:34:13.791Z,16.14
2019-05-29T19:36:43.629Z,16.08
2019-05-29T19:39:13.649Z,16.01
2019-05-29T19:41:43.762Z,15.94
2019-05-29T19:44:13.655Z,15.93
2019-05-29T19:46:53.555Z,15.90
2019-05-29T19:49:14.879Z,15.86
2019-05-29T19:51:44.337Z,15.85
2019-05-29T19:54:13.699Z,15.80
2019-05-29T19:56:43.814Z,15.70
2019-05-29T19:59:13.700Z,15.70
2019-05-29T20:01:43.760Z,15.67
2019-05-29T20:04:13.836Z,15.62
2019-05-29T20:06:43.850Z,15.62
2019-05-29T20:09:13.721Z,15.56
2019-05-29T20:11:43.871Z,15.50
2019-05-29T20:14:13.817Z,15.48
2019-05-29T20:16:43.700Z,15.38
2019-05-29T20:19:14.078Z,15.38
2019-05-29T20:21:43.813Z,15.41
2019-05-29T20:24:13.914Z,15.39
2019-05-29T20:26:43.980Z,15.34
2019-05-29T20:29:15.187Z,15.28
2019-05-29T20:31:44.834Z,15.19
2019-05-29T20:34:14.322Z,15.24
2019-05-29T20:36:43.722Z,15.21
2019-05-29T20:39:13.880Z,15.08
2019-05-29T20:41:44.158Z,15.05
2019-05-29T20:44:13.795Z,15.06
2019-05-29T20:46:43.777Z,14.96
2019-05-29T20:49:13.948Z,14.89
2019-05-29T20:51:43.795Z,14.92
2019-05-29T20:54:13.942Z,14.88
2019-05-29T20:56:47.125Z,14.87
2019-05-29T20:59:16.493Z,14.78
2019-05-29T21:01:47.567Z,14.77
2019-05-29T21:04:19.182Z,14.70
2019-05-29T21:06:49.849Z,14.66
2019-05-29T21:09:19.285Z,14.63
2019-05-29T21:11:48.900Z,14.65
2019-05-29T21:14:18.327Z,14.67
2019-05-29T21:16:47.751Z,14.65
2019-05-29T21:19:17.312Z,14.57
2019-05-29T21:21:47.501Z,14.54
2019-05-29T21:24:16.929Z,14.46
2019-05-29T21:26:47.024Z,14.42
2019-05-29T21:29:16.460Z,14.36
2019-05-29T21:31:45.895Z,14.28
2019-05-29T21:34:15.776Z,14.28
2019-05-29T21:36:46.394Z,14.24
2019-05-29T21:39:15.966Z,14.23
2019-05-29T21:41:46.621Z,14.19
2019-05-29T21:44:16.207Z,14.05
2019-05-29T21:46:45.622Z,14.00
2019-05-29T21:49:15.229Z,14.02
2019-05-29T21:51:45.773Z,13.99
2019-05-29T21:54:15.413Z,13.98
2019-05-29T21:56:45.856Z,13.99
2019-05-29T21:59:15.424Z,13.91
2019-05-29T22:01:46.190Z,13.84
2019-05-29T22:04:15.973Z,13.82
2019-05-29T22:06:46.560Z,13.80
2019-05-29T22:09:16.394Z,13.71
2019-05-29T22:11:45.960Z,13.71
2019-05-29T22:14:15.587Z,13.71
2019-05-29T22:16:45.135Z,13.74
2019-05-29T22:19:14.649Z,13.73
2019-05-29T22:21:44.083Z,13.75
2019-05-29T22:24:14.062Z,13.69
2019-05-29T22:26:44.174Z,13.68
2019-05-29T22:29:18.381Z,13.69
2019-05-29T22:31:45.192Z,13.69
2019-05-29T22:34:14.973Z,13.71
2019-05-29T22:36:44.380Z,13.71
2019-05-29T22:39:14.407Z,13.64
2019-05-29T22:41:44.093Z,13.56
2019-05-29T22:44:13.998Z,13.48
2019-05-29T22:46:44.063Z,13.52
2019-05-29T22:49:14.165Z,13.39
2019-05-29T22:51:44.237Z,13.38
2019-05-29T22:54:14.024Z,13.34
2019-05-29T22:56:44.131Z,13.31
2019-05-29T22:59:14.020Z,13.28
2019-05-29T23:01:44.119Z,13.28
2019-05-29T23:04:14.195Z,13.22
2019-05-29T23:06:44.147Z,13.19
2019-05-29T23:09:14.043Z,13.20
2019-05-29T23:11:44.493Z,13.13
2019-05-29T23:14:14.077Z,13.08
2019-05-29T23:16:44.096Z,13.09
2019-05-29T23:19:14.188Z,13.05
2019-05-29T23:21:44.182Z,13.07
2019-05-29T23:24:14.167Z,13.02
2019-05-29T23:26:44.268Z,13.02
2019-05-29T23:29:14.212Z,12.93
2019-05-29T23:31:44.156Z,12.95
2019-05-29T23:34:14.342Z,12.94
2019-05-29T23:36:44.244Z,12.91
2019-05-29T23:39:14.192Z,12.95
2019-05-29T23:41:45.232Z,12.93
2019-05-29T23:44:15.353Z,12.93
2019-05-29T23:46:44.741Z,12.92
2019-05-29T23:49:14.230Z,12.92
2019-05-29T23:51:44.112Z,12.91
2019-05-29T23:54:14.227Z,12.88
2019-05-29T23:56:44.397Z,12.91
2019-05-29T23:59:14.125Z,12.89
